Terminal Aerodrome Forecast
Issued by NWS

Current Version | Previous Version | Text Only | Print | Product List | Glossary On
Versions: 1 2 3 4 5 6 7 8 9 10 11 12 13 14
000
FTUS46 KSGX 201720
TAFTRM
TAF
KTRM 201720Z 2018/2118 31012G20KT P6SM SCT150
     FM202200 32015G25KT P6SM SCT150
     FM210200 33012KT P6SM FEW250
     FM211000 VRB06KT P6SM FEW250=

USA.gov is the U.S. government's official web portal to all federal, state and local government web resources and services.